Stations météo

Publicité
Chillingham Barns, Grande-Bretagne (99196): Température de l'air & dewpoint: 16.11.2017 21:00:00 - 22.11.2017 21:00:00 (GMT)Chillingham Barns, Grande-Bretagne (99196): Quantités de précipitations: 16.11.2017 21:00:00 - 22.11.2017 21:00:00 (GMT)
Date & Time tt [°C] td [°C] rr [mm]
22.11.2017 21:00:00 7,1 7,1 1,8
22.11.2017 20:00:00 7,4 7,4 1,8
22.11.2017 19:00:00 8,0 8,0 1,2
22.11.2017 18:00:00 7,9 7,9 1,0
22.11.2017 17:00:00 8,1 8,1 2,8
22.11.2017 16:00:00 - - 2,0
22.11.2017 15:00:00 8,3 8,3 2,2
22.11.2017 14:00:00 8,3 8,3 3,2
22.11.2017 13:00:00 8,6 8,5 3,4
22.11.2017 12:00:00 8,5 8,2 2,6
22.11.2017 11:00:00 8,6 8,3 1,8
22.11.2017 10:00:00 8,8 7,8 0,4
22.11.2017 09:00:00 10,1 7,9 0,0
22.11.2017 08:00:00 10,4 8,2 0,0
22.11.2017 07:00:00 11,0 8,4 0,0
22.11.2017 06:00:00 11,1 8,3 0,0
22.11.2017 05:00:00 11,2 8,4 0,0
22.11.2017 04:00:00 11,1 8,3 0,0
22.11.2017 03:00:00 11,0 8,4 0,0
22.11.2017 02:00:00 10,8 8,0 0,0
22.11.2017 01:00:00 10,9 7,6 0,0
22.11.2017 00:00:00 11,3 7,6 0,0
21.11.2017 23:00:00 11,5 8,0 0,0
21.11.2017 22:00:00 11,9 8,6 0,0
21.11.2017 21:00:00 12,7 9,1 0,0
21.11.2017 20:00:00 13,0 11,2 0,0
21.11.2017 19:00:00 11,8 10,8 0,0
21.11.2017 18:00:00 11,8 10,6 0,0
21.11.2017 17:00:00 11,9 10,1 0,0
21.11.2017 16:00:00 12,0 9,5 0,0
21.11.2017 15:00:00 11,7 10,3 -
21.11.2017 14:00:00 11,9 11,3 0,0
21.11.2017 13:00:00 10,4 10,2 0,0
21.11.2017 12:00:00 10,0 9,7 0,0
21.11.2017 11:00:00 9,3 9,2 -
21.11.2017 10:00:00 9,5 9,5 0,8
21.11.2017 09:00:00 8,9 8,9 0,0
21.11.2017 08:00:00 8,7 8,7 0,0
21.11.2017 07:00:00 8,0 8,0 0,0
21.11.2017 06:00:00 7,6 7,6 0,0
21.11.2017 05:00:00 7,6 7,6 0,2
21.11.2017 04:00:00 7,1 7,1 0,0
21.11.2017 03:00:00 7,0 7,0 0,2
21.11.2017 02:00:00 6,7 6,7 0,2
21.11.2017 01:00:00 6,5 6,5 0,2
21.11.2017 00:00:00 6,3 6,3 0,0
20.11.2017 23:00:00 6,4 6,4 0,0
20.11.2017 22:00:00 - - 0,0
20.11.2017 21:00:00 6,6 6,6 0,0
20.11.2017 20:00:00 6,6 6,5 0,2
20.11.2017 19:00:00 6,6 6,4 0,0
20.11.2017 18:00:00 6,6 6,4 0,2
20.11.2017 17:00:00 7,8 7,6 0,2
20.11.2017 16:00:00 8,1 7,9 0,2
20.11.2017 15:00:00 8,8 8,4 0,2
20.11.2017 14:00:00 12,3 10,5 0,0
20.11.2017 13:00:00 9,1 9,1 0,0
20.11.2017 12:00:00 6,0 6,0 0,2
20.11.2017 11:00:00 5,4 5,3 1,0
20.11.2017 10:00:00 5,1 5,0 0,4
20.11.2017 09:00:00 5,3 5,0 0,0
20.11.2017 08:00:00 4,5 4,5 0,0
20.11.2017 07:00:00 3,8 3,8 0,0
20.11.2017 06:00:00 3,7 3,7 0,2
20.11.2017 05:00:00 3,7 3,6 0,0
20.11.2017 04:00:00 3,7 3,5 1,2
20.11.2017 03:00:00 - - 1,8
20.11.2017 02:00:00 3,4 3,2 -
20.11.2017 01:00:00 2,9 2,5 1,0
20.11.2017 00:00:00 3,0 2,3 1,4
19.11.2017 23:00:00 3,3 1,8 0,4
19.11.2017 22:00:00 3,1 1,2 0,0
19.11.2017 21:00:00 3,3 0,6 -
19.11.2017 20:00:00 3,2 0,6 0,0
19.11.2017 19:00:00 3,0 0,6 0,0
19.11.2017 18:00:00 2,8 0,2 0,0
19.11.2017 17:00:00 3,0 0,2 0,0
19.11.2017 16:00:00 4,0 -0,1 0,0
19.11.2017 15:00:00 5,6 0,6 0,0
19.11.2017 14:00:00 5,5 0,2 0,0
19.11.2017 13:00:00 5,2 -0,1 0,0
19.11.2017 12:00:00 - - 0,0
19.11.2017 11:00:00 4,8 0,2 0,0
19.11.2017 10:00:00 2,9 -0,7 0,0
19.11.2017 09:00:00 1,6 -1,3 0,0
19.11.2017 08:00:00 0,9 -1,8 0,0
19.11.2017 07:00:00 1,5 -1,8 0,0
19.11.2017 06:00:00 0,8 -2,1 0,0
19.11.2017 05:00:00 1,4 -2,0 0,0
19.11.2017 04:00:00 1,9 -2,2 0,0
19.11.2017 03:00:00 2,4 -2,5 0,0
19.11.2017 02:00:00 2,2 -2,6 -
19.11.2017 01:00:00 2,6 -2,4 0,0
19.11.2017 00:00:00 2,9 -2,3 0,0
18.11.2017 23:00:00 3,4 -2,4 0,0
18.11.2017 22:00:00 4,1 -2,7 0,0
18.11.2017 21:00:00 4,2 -2,4 0,0
18.11.2017 20:00:00 4,1 -1,5 0,0
18.11.2017 19:00:00 4,9 -1,5 0,0
18.11.2017 18:00:00 5,0 -0,9 0,0
18.11.2017 17:00:00 5,1 -1,0 0,0
18.11.2017 16:00:00 5,4 -1,6 0,0
18.11.2017 15:00:00 5,8 -1,6 0,0
18.11.2017 14:00:00 5,5 -0,8 0,0
18.11.2017 13:00:00 6,0 -0,7 0,0
18.11.2017 12:00:00 6,0 0,7 0,0
18.11.2017 11:00:00 6,1 0,7 0,0
18.11.2017 10:00:00 5,9 1,3 0,0
18.11.2017 09:00:00 5,5 1,3 0,0
18.11.2017 08:00:00 5,5 1,6 0,0
18.11.2017 07:00:00 5,7 1,8 0,0
18.11.2017 06:00:00 6,7 1,9 0,0
18.11.2017 05:00:00 6,9 3,3 0,2
18.11.2017 04:00:00 7,4 3,4 0,0
18.11.2017 03:00:00 7,2 3,4 0,0
18.11.2017 02:00:00 6,7 3,8 0,0
18.11.2017 01:00:00 7,2 4,1 0,0
18.11.2017 00:00:00 7,2 3,6 0,0
17.11.2017 23:00:00 6,9 3,5 0,0
17.11.2017 22:00:00 7,3 3,8 0,0
17.11.2017 21:00:00 7,0 3,6 0,0
17.11.2017 20:00:00 7,1 3,9 0,0
17.11.2017 19:00:00 6,8 3,5 0,0
17.11.2017 18:00:00 6,5 3,5 0,0
17.11.2017 17:00:00 6,6 3,4 0,0
17.11.2017 16:00:00 7,1 3,6 0,0
17.11.2017 15:00:00 7,6 3,8 0,0
17.11.2017 14:00:00 8,9 4,6 0,0
17.11.2017 13:00:00 7,2 3,6 0,0
17.11.2017 12:00:00 7,1 3,2 0,0
17.11.2017 11:00:00 6,8 2,9 0,0
17.11.2017 10:00:00 6,4 2,5 0,0
17.11.2017 09:00:00 6,2 2,6 0,0
17.11.2017 08:00:00 5,3 2,1 0,0
17.11.2017 07:00:00 4,5 1,8 0,0
17.11.2017 06:00:00 4,6 0,6 0,0
17.11.2017 05:00:00 4,8 1,4 0,0
17.11.2017 04:00:00 3,1 0,2 0,0
17.11.2017 03:00:00 4,1 0,6 0,0
17.11.2017 02:00:00 4,3 0,9 0,0
17.11.2017 01:00:00 4,2 0,7 0,0
17.11.2017 00:00:00 4,1 0,9 0,0
16.11.2017 23:00:00 4,2 0,9 0,0
16.11.2017 22:00:00 4,4 0,3 0,0
16.11.2017 21:00:00 4,7 0,6 0,0

tt = Température de l'air
td = dewpoint
rr = Quantités de précipitations

stations d'obs. à proximité